Flight Track Log - Related Links

Times and Time Zones

All times are in EST time to prevent confusion due to time zone crossing. See the DAL222 flight status page for this flight to view local times or setup timezone preferences in your user account.

Time Position Orientation Groundspeed Altitude Reporting Facility
EST Latitude Longitude Course Direction KTS MPH feet Rate Location/Type
Mon 02:20:00 AM -15.6007 -48.1008 325° Northwest  Level Estimated
Mon 02:21:00 AM -15.3041 -48.3132 325° Northwest  Level Estimated
Mon 02:22:00 AM -15.0073 -48.5249 325° Northwest  Level Estimated
Mon 02:23:00 AM -14.7103 -48.7361 325° Northwest  Level Estimated
Mon 02:24:00 AM -14.4131 -48.9468 326° Northwest  Level Estimated
Mon 02:25:00 AM -14.1157 -49.1568 326° Northwest  Level Estimated
Mon 02:26:00 AM -13.8181 -49.3663 326° Northwest  Level Estimated
Mon 02:27:00 AM -13.5204 -49.5753 326° Northwest  Level Estimated
Mon 02:28:00 AM -13.2224 -49.7838 326° Northwest  Level Estimated
Mon 02:28:15 AM 18.7394 -72.0544 326° Northwest 467 537 38,000  Level Miami Center
Mon 02:29:00 AM -12.9243 -49.9917 326° Northwest  Level Estimated
Mon 02:29:14 AM 18.8422 -72.1406 322° Northwest 462 532 38,000  Level Miami Center
Mon 02:30:00 AM -12.6261 -50.1992 326° Northwest  Level Estimated
Mon 02:30:15 AM 18.9422 -72.2139 325° Northwest 454 522 38,000  Level Miami Center
Mon 02:31:00 AM -12.3277 -50.4061 326° Northwest  Level Estimated
Mon 02:31:14 AM 19.0425 -72.2983 321° Northwest 454 522 38,000  Level Miami Center
Mon 02:32:16 AM 19.1447 -72.3806 323° Northwest 454 522 38,000  Level Miami Center
Mon 02:33:14 AM 19.2556 -72.4625 325° Northwest 444 511 38,000  Level Miami Center
Mon 02:34:15 AM 19.3431 -72.5433 319° Northwest 464 534 38,000  Level Miami Center
Mon 02:35:14 AM 19.4456 -72.6258 323° Northwest 464 534 38,000  Level Miami Center
Mon 02:36:17 AM 19.5539 -72.7083 324° Northwest 451 519 38,000  Level Miami Center
Mon 02:37:14 AM 19.6583 -72.7911 323° Northwest 456 525 38,000  Level Miami Center
Mon 02:38:17 AM 19.7606 -72.8783 321° Northwest 462 532 38,000  Level Miami Center
Mon 02:39:15 AM 19.8606 -72.9617 322° Northwest 462 532 38,000  Level Miami Center
Mon 02:40:15 AM 19.9628 -73.0447 323° Northwest 457 526 38,000 -50 Level Miami Center
Mon 02:41:14 AM 20.0628 -73.1303 321° Northwest 457 526 37,900  Descending Miami Center
Mon 02:42:14 AM 20.1689 -73.2114 324° Northwest 457 526 38,000 50 Climbing Miami Center
Mon 02:43:14 AM 20.2772 -73.2881 326° Northwest 464 534 38,000  Level Miami Center
Mon 02:44:16 AM 20.3833 -73.3694 324° Northwest 469 540 38,000  Level Miami Center
Mon 02:45:15 AM 20.4914 -73.4464 326° Northwest 469 540 38,000  Level Miami Center
Mon 02:46:14 AM 20.5953 -73.5236 325° Northwest 469 540 38,000  Level Miami Center
Mon 02:47:14 AM 20.7033 -73.6008 326° Northwest 469 540 38,000  Level Miami Center
Mon 02:48:14 AM 20.8114 -73.6825 325° Northwest 469 540 38,000  Level Miami Center
Mon 02:49:15 AM 20.9175 -73.7600 326° Northwest 469 540 38,000  Level Miami Center
Mon 02:50:15 AM 21.0169 -73.8356 325° Northwest 477 549 38,000  Level Miami Center
Mon 02:51:16 AM 21.1250 -73.9175 325° Northwest 477 549 38,000  Level Miami Center
Mon 02:52:16 AM 21.2308 -73.9978 325° Northwest 477 549 38,000  Level Miami Center
Mon 02:53:16 AM 21.3367 -74.0756 326° Northwest 477 549 38,000  Level Miami Center
Mon 02:54:14 AM 21.4447 -74.1558 325° Northwest 477 549 38,000  Level Miami Center
Mon 02:55:16 AM 21.5506 -74.2386 324° Northwest 477 549 38,000  Level Miami Center
Mon 02:56:14 AM 21.6583 -74.3214 324° Northwest 477 549 38,000  Level Miami Center
Mon 02:57:14 AM 21.7619 -74.4044 323° Northwest 477 549 38,000  Level Miami Center
Mon 02:58:14 AM 21.8697 -74.4828 326° Northwest 477 549 38,000  Level Miami Center
Mon 02:59:15 AM 21.9756 -74.5661 324° Northwest 472 543 38,000  Level Miami Center
Mon 03:00:14 AM 22.0811 -74.6494 324° Northwest 472 543 38,000  Level Miami Center
Mon 03:01:14 AM 22.1889 -74.7306 325° Northwest 477 549 38,000  Level Miami Center
Mon 03:02:15 AM 22.2986 -74.8094 326° Northwest 477 549 38,000  Level Miami Center
Mon 03:03:16 AM 22.4042 -74.8933 324° Northwest 477 549 38,000  Level Miami Center
Mon 03:04:15 AM 22.5117 -74.9747 325° Northwest 477 549 38,000  Level Miami Center
Mon 03:05:14 AM 22.6192 -75.0589 324° Northwest 477 549 38,000  Level Miami Center
Mon 03:06:18 AM 22.7267 -75.1383 326° Northwest 482 555 38,000  Level Miami Center
Mon 03:07:14 AM 22.8319 -75.2203 324° Northwest 476 548 38,000  Level Miami Center
Mon 03:08:17 AM 22.9394 -75.3025 325° Northwest 476 548 38,000  Level Miami Center
Mon 03:09:17 AM 23.0447 -75.3847 324° Northwest 476 548 38,000  Level Miami Center
Mon 03:10:14 AM 23.1522 -75.4692 324° Northwest 481 554 38,000  Level Miami Center
Mon 03:11:14 AM 23.2572 -75.5494 325° Northwest 481 554 38,000  Level Miami Center
Mon 03:12:16 AM 23.3625 -75.6300 325° Northwest 474 545 38,000  Level Miami Center
Mon 03:13:16 AM 23.4697 -75.7172 323° Northwest 469 540 38,000  Level Miami Center
Mon 03:14:16 AM 23.5831 -75.7956 328° Northwest 479 551 38,000  Level Miami Center
Mon 03:15:16 AM 23.6883 -75.8856 322° Northwest 489 563 38,000  Level Miami Center
Mon 03:16:17 AM 23.7953 -75.9708 324° Northwest 479 551 38,000  Level Miami Center
Mon 03:17:14 AM 23.9003 -76.0542 324° Northwest 479 551 38,000  Level Miami Center
Mon 03:18:14 AM 24.0117 -76.1400 325° Northwest 479 551 38,000  Level Miami Center
Mon 03:19:14 AM 24.1186 -76.2258 324° Northwest 484 557 38,000  Level Miami Center
Mon 03:20:14 AM 24.2256 -76.3097 324° Northwest 484 557 38,000  Level Miami Center
Mon 03:26:16 AM 24.8968 -76.8459 324° Northwest 482 555 38,000  Level FlightAware ADS-B
Mon 03:28:00 AM 25.4060 -77.2458 325° Northwest  Level Estimated
Mon 03:29:00 AM 25.6992 -77.4780 325° Northwest  Level Estimated
Mon 03:30:00 AM 25.9921 -77.7113 324° Northwest  Level Estimated
Mon 03:31:00 AM 26.2846 -77.9459 324° Northwest  Level Estimated
Mon 03:32:00 AM 26.5767 -78.1816 324° Northwest  Level Estimated
Mon 03:33:00 AM 26.8684 -78.4185 324° Northwest  Level Estimated
Mon 03:34:00 AM 27.1598 -78.6567 324° Northwest  Level Estimated
Mon 03:35:00 AM 27.4507 -78.8961 324° Northwest  Level Estimated
Mon 03:36:00 AM 27.7412 -79.1367 324° Northwest  Level Estimated
Mon 03:37:00 AM 28.0313 -79.3787 324° Northwest  Level Estimated
Mon 03:38:00 AM 28.3210 -79.6219 324° Northwest  Level Estimated
Mon 03:39:00 AM 28.6102 -79.8665 323° Northwest  Level Estimated
Mon 03:40:00 AM 28.8990 -80.1124 323° Northwest  Level Estimated
Mon 03:41:00 AM 29.1874 -80.3597 323° Northwest  Level Estimated
Mon 03:42:00 AM 29.4753 -80.6085 323° Northwest  Level Estimated
Mon 03:43:00 AM 29.7627 -80.8586 323° Northwest  Level Estimated
Mon 03:44:00 AM 30.0496 -81.1101 323° Northwest  Level Estimated
Mon 03:45:00 AM 30.3361 -81.3631 323° Northwest  Level Estimated
Mon 03:46:00 AM 30.6221 -81.6176 323° Northwest  Level Estimated
Mon 03:47:00 AM 30.9076 -81.8736 322° Northwest  Level Estimated
Mon 03:48:00 AM 31.1926 -82.1311 322° Northwest  Level Estimated
Mon 03:49:00 AM 31.4770 -82.3902 322° Northwest  Level Estimated
Mon 03:50:00 AM 31.7609 -82.6509 322° Northwest  Level Estimated
Mon 03:51:00 AM 32.0443 -82.9132 322° Northwest  Level Estimated
Mon 03:52:00 AM 32.3272 -83.1770 322° Northwest  Level Estimated
Mon 03:53:00 AM 32.6095 -83.4426 322° Northwest  Level Estimated
Mon 03:54:00 AM 32.8912 -83.7098 321° Northwest  Level Estimated
Mon 03:55:00 AM 33.1724 -83.9788 321° Northwest  Level Estimated
Mon 03:56:00 AM 33.4530 -84.2494 321° Northwest  Level Estimated
Mon 03:57:00 AM 33.6367 -84.4279 321° Northwest  Level Estimated
Mon 03:58:00 AM 33.6367 -84.4279 261° West  Level Estimated
Mon 03:59:00 AM 33.6367 -84.4279 261° West  Level Estimated
Mon 04:00:00 AM 33.6367 -84.4279 261° West  Level Estimated
Mon 04:01:00 AM 33.6367 -84.4279 261° West  Level Estimated
Mon 04:02:00 AM 33.6367 -84.4279 261° West  Level Estimated
Mon 04:03:00 AM 33.6367 -84.4279 261° West  Level Estimated
Mon 04:04:00 AM 33.6367 -84.4279 261° West  Level Estimated
Mon 04:05:00 AM 33.6367 -84.4279 261° West  Level Estimated
Mon 04:06:00 AM 33.6367 -84.4279 261° West  Level Estimated
Mon 04:07:00 AM 33.6367 -84.4279 261° West  Level Estimated
Mon 04:08:00 AM 33.6367 -84.4279 261° West  Level Estimated
Mon 04:09:00 AM 33.6367 -84.4279 261° West  Level Estimated
Mon 04:10:00 AM 33.6367 -84.4279 261° West  Level Estimated
Mon 04:11:00 AM 33.6367 -84.4279 261° West  Level Estimated
Mon 04:12:00 AM 33.6367 -84.4279 261° West  Level Estimated
Mon 04:13:00 AM 33.6367 -84.4279 261° West  Level Estimated
Mon 04:14:00 AM 33.6367 -84.4279 261° West  Level Estimated
Mon 04:15:00 AM 33.6367 -84.4279 261° West  Level Estimated
Mon 04:16:00 AM 33.6367 -84.4279 261° West  Level Estimated
Mon 04:17:00 AM 33.6367 -84.4279 261° West  Level Estimated
Mon 04:18:00 AM 33.6367 -84.4279 261° West  Level Estimated
Mon 04:19:00 AM 33.6367 -84.4279 261° West  Level Estimated
Mon 04:20:00 AM 33.6367 -84.4279 261° West  Level Estimated
Mon 04:21:00 AM 33.6367 -84.4279 261° West  Level Estimated
Mon 04:22:00 AM 33.6367 -84.4279 261° West  Level Estimated
Mon 04:23:00 AM 33.6367 -84.4279 261° West  Level Estimated
Mon 04:24:00 AM 33.6367 -84.4279 261° West  Level Estimated
Mon 04:25:00 AM 33.6367 -84.4279 261° West  Level Estimated
Mon 04:26:00 AM 33.6367 -84.4279 261° West  Level Estimated
Mon 04:27:00 AM 33.6367 -84.4279 261° West  Level Estimated
Mon 04:28:00 AM 33.6367 -84.4279 261° West  Level Estimated
Mon 04:29:00 AM 33.6367 -84.4279 261° West  Level Estimated
Mon 04:30:00 AM 33.6367 -84.4279 261° West  Level Estimated
Mon 04:31:00 AM 33.6367 -84.4279 261° West  Level Estimated
Mon 04:32:00 AM 33.6367 -84.4279 261° West  Level Estimated
Mon 04:33:00 AM 33.6367 -84.4279 261° West  Level Estimated
Mon 04:34:00 AM 33.6367 -84.4279 261° West  Level Estimated
Mon 04:35:00 AM 33.6367 -84.4279 261° West  Level Estimated
Mon 04:36:00 AM 33.6367 -84.4279 261° West  Level Estimated
Mon 04:37:00 AM 33.6367 -84.4279 261° West  Level Estimated
Mon 04:38:00 AM 33.6367 -84.4279 261° West  Level Estimated
Mon 04:39:00 AM 33.6367 -84.4279 261° West  Level Estimated
Mon 04:40:00 AM 33.6367 -84.4279 261° West  Level Estimated
Mon 04:41:00 AM 33.6367 -84.4279 261° West  Level Estimated
Mon 04:42:00 AM 33.6367 -84.4279 261° West  Level Estimated
Mon 04:43:00 AM 33.6367 -84.4279 261° West  Level Estimated
Mon 04:44:00 AM 33.6367 -84.4279 261° West  Level Estimated
Mon 04:45:00 AM 33.6367 -84.4279 261° West  Level Estimated
Mon 04:46:00 AM 33.6367 -84.4279 261° West  Level Estimated
Mon 04:47:00 AM 33.6367 -84.4279 261° West  Level Estimated
Mon 04:48:00 AM 33.6367 -84.4279 261° West  Level Estimated
Mon 04:49:00 AM 33.6367 -84.4279 261° West  Level Estimated
Mon 04:50:00 AM 33.6367 -84.4279 261° West  Level Estimated
Mon 04:51:00 AM 33.6367 -84.4279 261° West  Level Estimated
Mon 04:52:00 AM 33.6367 -84.4279 261° West  Level Estimated
Mon 04:53:00 AM 33.6367 -84.4279 261° West  Level Estimated
Mon 04:54:00 AM 33.6367 -84.4279 261° West  Level Estimated
Mon 04:55:00 AM 33.6367 -84.4279 261° West  Level Estimated
Mon 04:56:00 AM 33.6367 -84.4279 261° West  Level Estimated
Mon 04:57:00 AM 33.6367 -84.4279 261° West  Level Estimated
Mon 04:58:00 AM 33.6367 -84.4279 261° West  Level Estimated
Mon 04:59:00 AM 33.6367 -84.4279 261° West  Level Estimated
Mon 05:00:00 AM 33.6367 -84.4279 261° West  Level Estimated
Mon 05:01:00 AM 33.6367 -84.4279 261° West  Level Estimated
Mon 05:02:00 AM 33.6367 -84.4279 261° West  Level Estimated
Mon 05:03:00 AM 33.6367 -84.4279 261° West  Level Estimated
Mon 05:04:00 AM 33.6367 -84.4279 261° West  Level Estimated
Mon 05:05:00 AM 33.6367 -84.4279 261° West  Level Estimated
Mon 05:06:00 AM 33.6367 -84.4279 261° West  Level Estimated
Mon 05:07:00 AM 33.6367 -84.4279 261° West  Level Estimated
Mon 05:08:00 AM 33.6367 -84.4279 261° West  Level Estimated
Mon 05:09:00 AM 33.6367 -84.4279 261° West  Level Estimated
Mon 05:10:00 AM 33.6367 -84.4279 261° West  Level Estimated
Mon 05:11:00 AM 33.6367 -84.4279 261° West  Level Estimated
Mon 05:12:00 AM 33.6367 -84.4279 261° West  Level Estimated
Mon 05:13:00 AM 33.6367 -84.4279 261° West  Level Estimated
Mon 05:14:00 AM 33.6367 -84.4279 261° West  Level Estimated
Mon 05:15:00 AM 33.6367 -84.4279 261° West  Level Estimated
Mon 05:16:00 AM 33.6367 -84.4279 261° West  Level Estimated

Login

Don't have an account? Register now (free) for customized features, flight alerts, and more!